Time;durP1;ratioP1;P1;durP2;ratioP2;P2;SDS_P1;SDS_P2;PMS_P1;PMS_P2;Temp;Humidity;BMP_temperature;BMP_pressure;BME280_temperature;BME280_humidity;BME280_pressure;Samples;Min_cycle;Max_cycle;Signal;HPM_P1;HPM_P2
2022/06/22 00:00:50;;;;;;;2.33;2.10;;;;;;;14.32;70.39;100699.38;5002249;28;20045;-85
2022/06/22 00:03:20;;;;;;;2.35;1.60;;;;;;;14.29;70.19;100695.94;5019503;28;20075;-84
2022/06/22 00:05:50;;;;;;;2.35;1.88;;;;;;;14.23;70.65;100689.91;5019911;28;20175;-83
2022/06/22 00:08:23;;;;;;;6.75;2.08;;;;;;;14.20;71.01;100686.50;5022263;28;20042;-84
2022/06/22 00:10:57;;;;;;;2.20;1.90;;;;;;;14.18;71.67;100688.31;5008877;28;20087;-82
2022/06/22 00:13:29;;;;;;;2.50;1.67;;;;;;;14.12;71.33;100685.81;5031288;28;20583;-85
2022/06/22 00:16:03;;;;;;;8.07;2.45;;;;;;;14.06;71.47;100686.81;5009381;28;20472;-83
2022/06/22 00:18:41;;;;;;;3.05;1.50;;;;;;;14.01;71.60;100692.19;4998434;28;20037;-83
2022/06/22 00:21:41;;;;;;;3.92;1.80;;;;;;;13.99;72.57;100704.53;5010397;28;20049;-84
2022/06/22 00:24:22;;;;;;;3.65;1.90;;;;;;;13.98;72.51;100709.81;5012826;28;20126;-83
2022/06/22 00:27:01;;;;;;;3.38;2.10;;;;;;;13.95;72.29;100707.25;5022788;28;20041;-83
2022/06/22 00:29:38;;;;;;;1.65;1.55;;;;;;;13.93;73.11;100706.44;5005017;28;20049;-83
2022/06/22 00:32:34;;;;;;;2.47;2.28;;;;;;;13.91;73.12;100711.72;4989069;28;20144;-86
2022/06/22 00:35:47;;;;;;;4.70;2.40;;;;;;;13.89;73.99;100710.88;5008735;28;20119;-85
2022/06/22 00:38:33;;;;;;;4.20;2.88;;;;;;;13.86;73.47;100710.97;5010255;28;20048;-83
2022/06/22 00:41:16;;;;;;;2.05;1.90;;;;;;;13.87;73.61;100710.03;5010996;28;20037;-85
2022/06/22 00:43:42;;;;;;;5.80;2.38;;;;;;;13.83;73.69;100711.91;5006834;28;20049;-82
2022/06/22 00:46:21;;;;;;;4.28;2.30;;;;;;;13.82;74.02;100717.16;4991855;28;20175;-85
2022/06/22 00:48:53;;;;;;;8.13;2.60;;;;;;;13.80;74.13;100719.84;5011291;28;20049;-83
2022/06/22 00:51:37;;;;;;;4.47;2.80;;;;;;;13.76;75.17;100715.53;5000331;28;20072;-85
2022/06/22 00:54:11;;;;;;;5.80;2.22;;;;;;;13.76;74.54;100714.69;5014960;28;20076;-82
2022/06/22 00:56:39;;;;;;;6.78;2.65;;;;;;;13.72;74.88;100716.50;5020100;28;20041;-86
2022/06/22 00:59:36;;;;;;;3.45;2.25;;;;;;;13.71;75.26;100727.94;5016073;28;20052;-85
2022/06/22 01:02:37;;;;;;;3.72;3.00;;;;;;;13.67;75.53;100723.63;5027079;28;20048;-84
2022/06/22 01:05:28;;;;;;;3.35;2.47;;;;;;;13.65;75.71;100733.31;5018948;28;20046;-84
2022/06/22 01:08:48;;;;;;;2.45;2.25;;;;;;;13.60;76.18;100729.91;5014754;28;20069;-82
2022/06/22 01:14:38;;;;;;;4.03;2.50;;;;;;;13.51;76.62;100720.47;5015581;28;20050;-85
2022/06/22 01:17:08;;;;;;;2.40;2.25;;;;;;;13.46;76.53;100722.31;4991867;28;20046;-84
2022/06/22 01:20:19;;;;;;;2.63;2.20;;;;;;;13.36;77.69;100716.31;4997875;28;20053;-83
2022/06/22 01:23:08;;;;;;;5.65;2.80;;;;;;;13.31;77.41;100715.53;5006060;28;20064;-83
2022/06/22 01:25:58;;;;;;;4.95;2.90;;;;;;;13.22;78.31;100711.34;5010054;28;20041;-84
2022/06/22 01:28:26;;;;;;;3.17;2.30;;;;;;;13.14;78.13;100711.47;5017377;28;20055;-83
2022/06/22 01:30:57;;;;;;;4.13;2.60;;;;;;;13.09;78.41;100708.06;5011260;28;20793;-83
2022/06/22 01:33:35;;;;;;;4.72;2.95;;;;;;;13.07;78.72;100701.97;4992415;28;20559;-82
2022/06/22 01:36:21;;;;;;;3.28;2.80;;;;;;;13.01;79.13;100696.81;5012113;28;20492;-85
2022/06/22 01:38:48;;;;;;;4.82;2.55;;;;;;;12.96;79.05;100689.03;5005382;28;20033;-84
2022/06/22 01:41:38;;;;;;;3.10;2.13;;;;;;;12.89;79.51;100679.50;5010687;28;20041;-82
2022/06/22 01:44:11;;;;;;;3.17;2.88;;;;;;;12.84;79.12;100679.63;5012323;28;20046;-89
2022/06/22 01:47:26;;;;;;;;;;;;;;;12.79;80.62;100680.56;4994441;28;20049;-84
2022/06/22 01:50:15;;;;;;;1.88;1.77;;;;;;;12.71;79.98;100678.06;4991551;28;19959;-83
2022/06/22 01:53:03;;;;;;;4.93;2.17;;;;;;;12.66;80.17;100675.56;5000437;28;20703;-83
2022/06/22 01:55:43;;;;;;;3.65;2.45;;;;;;;12.64;80.59;100682.56;5013795;28;20573;-82
2022/06/22 01:58:16;;;;;;;2.97;2.70;;;;;;;12.60;80.61;100683.53;5021747;28;20048;-83
2022/06/22 02:00:58;;;;;;;3.40;3.10;;;;;;;12.57;80.46;100675.72;5005060;28;20041;-82
2022/06/22 02:04:00;;;;;;;5.00;2.88;;;;;;;12.52;81.34;100673.16;4992536;28;20049;-82
2022/06/22 02:09:58;;;;;;;3.83;2.17;;;;;;;12.44;81.94;100663.66;5005270;28;20025;-83
2022/06/22 02:12:31;;;;;;;3.50;2.30;;;;;;;12.42;81.78;100661.06;5003469;28;20113;-82
2022/06/22 02:15:04;;;;;;;;;;;;;;;12.43;83.04;100656.69;5008974;28;20131;-84
2022/06/22 02:17:37;;;;;;;9.77;2.97;;;;;;;12.40;82.29;100661.09;5007970;28;19928;-86
2022/06/22 02:20:28;;;;;;;3.38;1.95;;;;;;;12.39;82.32;100654.09;5017657;28;20041;-84
2022/06/22 02:23:13;;;;;;;4.65;2.80;;;;;;;12.41;82.74;100657.59;5008034;28;20029;-83
2022/06/22 02:25:52;;;;;;;3.25;2.88;;;;;;;12.41;82.73;100649.72;5003602;28;20144;-84
2022/06/22 02:28:18;;;;;;;2.30;2.15;;;;;;;12.43;83.27;100647.06;5008418;28;20099;-83
2022/06/22 02:30:46;;;;;;;5.93;3.30;;;;;;;12.45;83.61;100650.53;5010658;28;20041;-86
2022/06/22 02:33:14;;;;;;;2.70;2.50;;;;;;;12.45;83.43;100652.28;5008090;28;20037;-85
2022/06/22 02:35:43;;;;;;;3.35;2.55;;;;;;;12.41;83.13;100641.84;4993105;28;20447;-85
2022/06/22 02:38:15;;;;;;;3.42;3.15;;;;;;;12.37;83.77;100636.66;5022963;28;20046;-86
2022/06/22 02:46:22;;;;;;;2.30;2.00;;;;;;;12.12;84.04;100641.44;5011018;28;20045;-83
2022/06/22 02:48:56;;;;;;;3.65;3.03;;;;;;;12.07;84.99;100641.50;5024441;28;20044;-84
2022/06/22 02:51:30;;;;;;;3.55;2.58;;;;;;;12.03;85.22;100637.19;5003881;28;20495;-85
2022/06/22 02:53:59;;;;;;;;;;;;;;;12.00;86.00;100645.97;5005786;28;20049;-83
2022/06/22 02:56:37;;;;;;;6.30;2.90;;;;;;;11.95;85.53;100639.91;5027545;28;19925;-82
2022/06/22 02:59:04;;;;;;;3.60;2.83;;;;;;;11.93;85.32;100636.44;5007953;28;20503;-84
2022/06/22 03:01:34;;;;;;;3.03;2.80;;;;;;;11.89;85.90;100638.22;5023057;28;20585;-83
2022/06/22 03:04:11;;;;;;;5.03;2.58;;;;;;;11.86;86.61;100638.28;5027089;28;20037;-83
2022/06/22 03:06:48;;;;;;;4.18;3.13;;;;;;;11.80;87.00;100640.09;5010233;28;20112;-86
2022/06/22 03:09:17;;;;;;;3.30;2.97;;;;;;;11.78;87.63;100641.91;4993580;28;20104;-83
2022/06/22 03:11:50;;;;;;;5.10;3.45;;;;;;;11.78;87.59;100639.28;4992573;28;20064;-83
2022/06/22 03:14:32;;;;;;;10.13;4.22;;;;;;;11.78;87.85;100641.91;5023238;28;20049;-85
2022/06/22 03:17:16;;;;;;;5.97;2.85;;;;;;;11.78;88.59;100641.91;4991983;28;20041;-84
2022/06/22 03:19:48;;;;;;;4.78;2.50;;;;;;;11.77;88.09;100646.25;5006463;28;20685;-83
2022/06/22 03:22:58;;;;;;;4.50;3.58;;;;;;;11.77;88.27;100645.41;5017743;28;20049;-85
2022/06/22 03:25:43;;;;;;;6.95;3.50;;;;;;;11.74;88.56;100647.16;4967778;28;20053;-85
2022/06/22 03:28:18;;;;;;;3.65;2.67;;;;;;;11.73;88.25;100644.56;5008700;28;20037;-86
2022/06/22 03:30:56;;;;;;;5.30;2.70;;;;;;;11.71;88.05;100656.88;5011319;28;20140;-86
2022/06/22 03:33:38;;;;;;;5.55;3.50;;;;;;;11.72;88.65;100648.09;5009895;28;20083;-86
2022/06/22 03:37:00;;;;;;;4.40;3.42;;;;;;;11.74;89.11;100649.78;5020910;28;20053;-83
2022/06/22 03:39:33;;;;;;;3.80;3.47;;;;;;;11.77;88.20;100648.88;5002685;28;20069;-83
2022/06/22 03:42:07;;;;;;;4.75;4.30;;;;;;;11.84;88.15;100645.31;5028202;28;20138;-82
2022/06/22 03:44:44;;;;;;;4.18;3.40;;;;;;;11.91;87.60;100646.97;4980852;28;20144;-85
2022/06/22 03:47:22;;;;;;;4.95;3.33;;;;;;;12.05;87.30;100646.78;5015397;28;20056;-83
2022/06/22 03:49:56;;;;;;;5.18;3.55;;;;;;;12.20;86.32;100644.78;5016298;28;20068;-85
2022/06/22 03:52:52;;;;;;;3.58;2.60;;;;;;;12.31;85.22;100650.75;5017345;28;20104;-85
2022/06/22 03:55:27;;;;;;;4.65;3.20;;;;;;;12.46;84.53;100659.25;5017722;28;20101;-86
2022/06/22 03:57:58;;;;;;;2.05;1.95;;;;;;;12.53;84.07;100653.03;5017626;28;20041;-83
2022/06/22 04:00:25;;;;;;;4.57;3.42;;;;;;;12.62;83.09;100667.72;5034580;28;20203;-85
2022/06/22 04:02:52;;;;;;;3.47;3.05;;;;;;;12.67;82.60;100679.91;5023208;28;20047;-85
2022/06/22 04:05:28;;;;;;;3.42;2.90;;;;;;;12.70;82.53;100687.72;4983096;28;20049;-83
2022/06/22 04:08:00;;;;;;;3.25;2.95;;;;;;;12.73;81.57;100676.31;5027750;28;20037;-83
2022/06/22 04:10:47;;;;;;;3.28;2.97;;;;;;;12.78;80.84;100661.34;5009185;28;20120;-82
2022/06/22 04:13:22;;;;;;;3.38;2.85;;;;;;;12.82;80.74;100649.00;5011940;28;20046;-84
2022/06/22 04:15:58;;;;;;;3.35;3.03;;;;;;;12.88;80.70;100649.75;5009889;28;20060;-83
2022/06/22 04:18:41;;;;;;;3.67;3.38;;;;;;;12.95;79.78;100653.13;5005379;28;20408;-82
2022/06/22 04:21:13;;;;;;;3.75;2.65;;;;;;;12.99;79.27;100654.81;5003616;28;20060;-82
2022/06/22 04:23:57;;;;;;;3.95;2.78;;;;;;;13.02;79.28;100651.25;5007242;28;20041;-82
2022/06/22 04:26:33;;;;;;;4.22;2.33;;;;;;;13.03;79.06;100647.75;5016251;28;20076;-82
2022/06/22 04:29:09;;;;;;;6.40;3.33;;;;;;;13.03;79.30;100651.22;4993454;28;20626;-83
2022/06/22 04:31:52;;;;;;;3.40;2.72;;;;;;;13.07;78.67;100649.41;5009061;28;20045;-83
2022/06/22 04:34:41;;;;;;;3.97;2.47;;;;;;;13.11;78.41;100653.69;4992898;28;20046;-83
2022/06/22 04:37:34;;;;;;;6.50;3.10;;;;;;;13.19;77.95;100651.81;5000544;28;20037;-84
2022/06/22 04:40:32;;;;;;;2.85;2.42;;;;;;;13.28;77.48;100648.09;4987897;28;20597;-82
2022/06/22 04:43:04;;;;;;;3.88;2.30;;;;;;;13.38;77.03;100656.72;4989876;28;20064;-80
2022/06/22 04:45:39;;;;;;;5.70;2.85;;;;;;;13.44;77.10;100653.09;5012368;28;20087;-83
2022/06/22 04:48:24;;;;;;;2.55;2.38;;;;;;;13.50;76.58;100643.31;4976212;28;20049;-82
2022/06/22 04:50:58;;;;;;;2.97;2.63;;;;;;;13.61;75.58;100642.22;5026829;28;20717;-83
2022/06/22 04:53:37;;;;;;;;;;;;;;;13.70;75.25;100657.78;4991066;28;20083;-81
2022/06/22 04:56:33;;;;;;;4.20;2.40;;;;;;;13.79;74.86;100656.72;5004889;28;19925;-85
2022/06/22 04:59:01;;;;;;;3.75;2.58;;;;;;;13.85;74.37;100651.34;5010710;28;20092;-82
2022/06/22 05:01:34;;;;;;;5.97;2.97;;;;;;;13.91;74.19;100659.09;5016331;28;20049;-82
2022/06/22 05:04:21;;;;;;;3.55;2.13;;;;;;;13.97;74.02;100664.19;5015116;28;20060;-85
2022/06/22 05:07:21;;;;;;;3.47;2.85;;;;;;;14.04;73.54;100663.16;4996102;28;20053;-84
2022/06/22 05:10:03;;;;;;;3.03;2.70;;;;;;;14.09;73.21;100670.94;4989369;28;20037;-84
2022/06/22 05:12:41;;;;;;;4.82;3.53;;;;;;;14.14;73.10;100670.84;4995477;28;20760;-82
2022/06/22 05:15:43;;;;;;;6.07;3.58;;;;;;;14.24;72.64;100682.91;5003364;28;20060;-83
2022/06/22 05:18:23;;;;;;;7.97;2.58;;;;;;;14.34;72.57;100688.78;5008618;28;20136;-83
2022/06/22 05:21:09;;;;;;;2.83;2.22;;;;;;;14.41;72.26;100690.41;5010963;28;20050;-83
2022/06/22 05:23:36;;;;;;;4.43;2.95;;;;;;;14.44;72.13;100679.78;5007409;28;20037;-82
2022/06/22 05:26:09;;;;;;;3.10;2.50;;;;;;;14.50;72.27;100682.25;5008521;28;20560;-81
2022/06/22 05:28:43;;;;;;;4.85;3.55;;;;;;;14.53;71.78;100686.59;5003902;28;20195;-83
2022/06/22 05:31:23;;;;;;;;;;;;;;;14.64;71.69;100695.13;4997599;28;20049;-82
2022/06/22 05:33:56;;;;;;;3.45;2.83;;;;;;;14.70;71.15;100694.09;5013066;28;19925;-84
2022/06/22 05:36:27;;;;;;;3.45;2.78;;;;;;;14.74;70.93;100681.72;4993120;28;20391;-82
2022/06/22 05:38:57;;;;;;;3.63;2.72;;;;;;;14.76;70.90;100690.44;5008659;28;20116;-83
2022/06/22 05:41:31;;;;;;;6.22;3.30;;;;;;;14.79;70.97;100691.22;5011256;28;20119;-82
2022/06/22 05:44:12;;;;;;;4.45;3.00;;;;;;;14.84;71.00;100705.16;5010014;28;20675;-81
2022/06/22 05:46:59;;;;;;;3.97;3.25;;;;;;;14.88;71.16;100698.03;5006980;28;20123;-85
2022/06/22 05:49:44;;;;;;;7.38;3.42;;;;;;;14.99;70.81;100700.38;5004364;28;20049;-81
2022/06/22 05:53:14;;;;;;;4.40;2.65;;;;;;;15.08;70.46;100694.84;5005683;28;20483;-83
2022/06/22 05:56:09;;;;;;;4.00;2.80;;;;;;;15.19;69.94;100692.81;4986549;28;20626;-82
2022/06/22 05:58:50;;;;;;;5.60;2.72;;;;;;;15.27;69.71;100694.38;5003315;28;20053;-84
2022/06/22 06:01:46;;;;;;;5.43;2.58;;;;;;;15.33;69.90;100692.44;5004460;28;20038;-83
2022/06/22 06:04:34;;;;;;;3.97;2.55;;;;;;;15.39;69.77;100689.59;5023042;28;20072;-82
2022/06/22 06:07:33;;;;;;;2.30;2.10;;;;;;;15.49;69.67;100692.84;5010023;28;20061;-85
2022/06/22 06:10:03;;;;;;;4.25;2.70;;;;;;;15.62;69.58;100700.38;4991290;28;20041;-83
2022/06/22 06:12:42;;;;;;;6.15;3.22;;;;;;;15.74;69.00;100694.75;4989596;28;20041;-82
2022/06/22 06:15:13;;;;;;;3.63;2.92;;;;;;;15.83;68.82;100694.53;4991632;28;20053;-82
2022/06/22 06:17:53;;;;;;;4.00;2.85;;;;;;;15.87;68.80;100704.06;4990531;28;20318;-82
2022/06/22 06:20:34;;;;;;;3.17;2.83;;;;;;;15.98;68.73;100700.25;5007278;28;20086;-81
2022/06/22 06:23:21;;;;;;;3.85;2.80;;;;;;;16.04;68.55;100703.56;5018767;28;20037;-82
2022/06/22 06:28:48;;;;;;;8.95;2.50;;;;;;;16.16;68.85;100706.72;5010104;28;20761;-84
2022/06/22 06:31:35;;;;;;;3.75;2.45;;;;;;;16.29;68.47;100716.00;5024343;28;20065;-81
2022/06/22 06:34:13;;;;;;;5.45;2.38;;;;;;;16.40;67.71;100715.66;5008221;28;20068;-84
2022/06/22 06:36:57;;;;;;;5.22;2.63;;;;;;;16.51;67.27;100720.59;5005102;28;20044;-83
2022/06/22 06:39:29;;;;;;;4.60;2.60;;;;;;;16.54;67.36;100717.84;5012146;28;20041;-86
2022/06/22 06:42:08;;;;;;;9.13;2.75;;;;;;;16.63;67.22;100721.97;5037367;28;20041;-85
2022/06/22 06:44:39;;;;;;;4.85;2.92;;;;;;;16.69;66.97;100713.84;5021236;28;20033;-83
2022/06/22 06:47:16;;;;;;;4.07;2.05;;;;;;;16.76;67.04;100703.91;5008815;28;20075;-86
2022/06/22 06:50:06;;;;;;;6.15;2.53;;;;;;;16.82;66.66;100703.72;5007590;28;20105;-84
2022/06/22 06:52:48;;;;;;;4.75;2.60;;;;;;;16.89;66.45;100691.16;5013596;28;20115;-84
2022/06/22 06:55:19;;;;;;;5.47;2.40;;;;;;;17.03;65.86;100687.13;5028496;28;20041;-84
2022/06/22 06:58:03;;;;;;;8.68;2.50;;;;;;;17.14;64.48;100680.59;5042104;28;20042;-85
2022/06/22 07:00:31;;;;;;;3.28;2.10;;;;;;;17.21;64.07;100695.34;4998270;28;20576;-82
2022/06/22 07:02:58;;;;;;;8.57;4.28;;;;;;;17.28;63.79;100685.41;4988309;28;20077;-82
2022/06/22 07:05:29;;;;;;;4.07;2.55;;;;;;;17.39;61.93;100683.22;5009178;28;20107;-80
2022/06/22 07:08:16;;;;;;;2.90;2.30;;;;;;;17.43;61.69;100679.53;4993959;28;20138;-82
2022/06/22 07:11:00;;;;;;;2.05;1.60;;;;;;;17.48;61.18;100671.41;5004649;28;20120;-82
2022/06/22 07:13:28;;;;;;;;;;;;;;;17.54;59.27;100671.19;4999733;28;20096;-82
2022/06/22 07:16:01;;;;;;;6.53;1.30;;;;;;;17.67;58.46;100671.59;4992544;28;20425;-83
2022/06/22 07:18:43;;;;;;;4.28;1.77;;;;;;;17.74;57.47;100673.06;4990592;28;20046;-82
2022/06/22 07:21:32;;;;;;;3.53;1.88;;;;;;;17.78;57.60;100679.09;5004793;28;20045;-82
2022/06/22 07:24:13;;;;;;;3.15;1.98;;;;;;;17.86;57.91;100680.53;5022108;28;20448;-82
2022/06/22 07:27:49;;;;;;;3.97;1.42;;;;;;;18.08;57.63;100677.09;4992726;28;20434;-81
2022/06/22 07:30:33;;;;;;;5.35;1.77;;;;;;;18.65;56.52;100677.38;4995143;28;20693;-82
2022/06/22 07:33:12;;;;;;;5.93;1.30;;;;;;;19.18;54.86;100677.81;5008002;28;20114;-83
2022/06/22 07:35:57;;;;;;;5.10;1.83;;;;;;;19.75;53.05;100674.34;5007488;28;20033;-84
2022/06/22 07:38:41;;;;;;;3.72;1.30;;;;;;;20.43;51.87;100664.00;4993285;28;20167;-83
2022/06/22 07:41:22;;;;;;;2.95;1.70;;;;;;;21.10;50.86;100672.13;5010465;28;20044;-85
2022/06/22 07:44:00;;;;;;;2.20;1.30;;;;;;;21.95;47.16;100682.69;5015866;28;20037;-82
2022/06/22 07:47:03;;;;;;;4.13;1.63;;;;;;;22.27;45.95;100675.53;4999103;28;20065;-83
2022/06/22 07:49:41;;;;;;;2.15;1.13;;;;;;;22.60;45.82;100671.84;5018437;28;20103;-85
2022/06/22 07:52:15;;;;;;;1.17;0.82;;;;;;;23.22;44.43;100670.84;5021537;28;20488;-85
2022/06/22 07:54:57;;;;;;;1.27;1.10;;;;;;;23.81;42.29;100669.84;5004418;28;20057;-83
2022/06/22 07:57:47;;;;;;;2.55;1.30;;;;;;;24.16;40.63;100665.84;5006632;28;20042;-84
2022/06/22 08:00:20;;;;;;;3.40;1.27;;;;;;;24.49;41.05;100669.91;5019682;28;20049;-82
2022/06/22 08:03:13;;;;;;;1.85;1.05;;;;;;;25.16;38.44;100666.25;5012117;28;20045;-83
2022/06/22 08:05:44;;;;;;;3.22;1.25;;;;;;;25.74;37.92;100661.28;5009269;28;20040;-82
2022/06/22 08:08:23;;;;;;;1.75;1.10;;;;;;;26.16;37.17;100656.41;4992283;28;20072;-84
2022/06/22 08:11:08;;;;;;;1.13;0.80;;;;;;;26.53;36.18;100660.81;5010484;28;20175;-83
2022/06/22 08:13:57;;;;;;;2.38;1.05;;;;;;;26.98;34.61;100663.63;5012115;28;20057;-84
2022/06/22 08:16:50;;;;;;;2.20;1.25;;;;;;;27.20;34.53;100657.44;5011482;28;20076;-84
2022/06/22 08:19:20;;;;;;;2.47;1.25;;;;;;;27.24;34.00;100663.41;5019915;28;20061;-82
2022/06/22 08:21:58;;;;;;;2.65;1.38;;;;;;;27.20;34.32;100659.28;5014914;28;20045;-82
2022/06/22 08:24:25;;;;;;;2.05;1.10;;;;;;;27.26;34.63;100661.47;4994181;28;20080;-82
2022/06/22 08:26:55;;;;;;;11.68;1.48;;;;;;;27.38;32.88;100654.28;5014778;28;20053;-83
2022/06/22 08:29:23;;;;;;;2.55;1.38;;;;;;;27.52;33.29;100658.53;5001055;28;20049;-83
2022/06/22 08:32:01;;;;;;;1.55;0.90;;;;;;;28.06;31.75;100668.50;5029368;28;20049;-84
2022/06/22 08:34:39;;;;;;;2.20;0.77;;;;;;;28.71;31.64;100668.47;5011667;28;20053;-82
2022/06/22 08:37:50;;;;;;;2.17;1.10;;;;;;;29.32;29.55;100666.88;5003164;28;20069;-83
2022/06/22 08:40:37;;;;;;;7.90;1.42;;;;;;;29.76;28.97;100671.13;5009785;28;20499;-83
2022/06/22 08:44:02;;;;;;;1.42;1.02;;;;;;;30.01;28.63;100667.06;5011103;28;20510;-83
2022/06/22 08:46:38;;;;;;;3.67;1.10;;;;;;;30.46;28.65;100671.06;5009609;28;20789;-84
2022/06/22 08:49:24;;;;;;;2.03;0.85;;;;;;;30.79;27.84;100658.94;5027315;28;20536;-84
2022/06/22 08:52:02;;;;;;;4.53;0.70;;;;;;;31.37;27.77;100665.22;5011841;28;20048;-86
2022/06/22 08:54:38;;;;;;;1.88;0.98;;;;;;;31.61;25.80;100666.50;5013703;28;20052;-87
2022/06/22 08:57:25;;;;;;;1.40;0.82;;;;;;;31.94;25.90;100656.94;5003664;28;20041;-88
2022/06/22 08:59:52;;;;;;;2.30;1.15;;;;;;;32.51;25.20;100654.94;5028042;28;20114;-83
2022/06/22 09:02:44;;;;;;;2.15;0.95;;;;;;;32.81;24.31;100665.34;5025249;28;20103;-86
2022/06/22 09:05:21;;;;;;;2.47;0.60;;;;;;;33.34;23.32;100672.59;5026126;28;20526;-83
2022/06/22 09:08:19;;;;;;;2.25;0.93;;;;;;;33.23;22.82;100668.28;5025852;28;20041;-86
2022/06/22 09:11:21;;;;;;;3.83;0.95;;;;;;;32.00;23.90;100661.72;5026465;28;20085;-86
2022/06/22 09:14:46;;;;;;;1.85;1.05;;;;;;;31.84;24.01;100661.56;5004829;28;20368;-83
2022/06/22 09:17:30;;;;;;;4.07;1.30;;;;;;;32.48;23.48;100653.38;5026724;28;20042;-84
2022/06/22 09:20:35;;;;;;;2.60;1.02;;;;;;;32.86;22.50;100648.59;4992755;28;20044;-85
2022/06/22 09:23:34;;;;;;;2.13;0.77;;;;;;;33.54;21.41;100655.03;5009921;28;20065;-85
2022/06/22 09:26:24;;;;;;;2.50;0.93;;;;;;;33.58;21.05;100652.84;5017234;28;20049;-84
2022/06/22 09:28:59;;;;;;;1.02;0.50;;;;;;;34.13;20.87;100652.34;4998254;28;20049;-84
2022/06/22 09:31:38;;;;;;;2.63;0.80;;;;;;;34.60;20.33;100650.81;5000622;28;20067;-84
2022/06/22 09:35:09;;;;;;;1.67;1.02;;;;;;;34.97;20.15;100647.72;5008634;28;20065;-84
2022/06/22 09:38:19;;;;;;;3.40;0.73;;;;;;;35.65;19.85;100654.44;4930491;28;20047;-83
2022/06/22 09:41:05;;;;;;;2.63;1.10;;;;;;;36.42;19.04;100663.66;4942235;28;20058;-86
2022/06/22 09:44:12;;;;;;;4.00;1.33;;;;;;;36.00;19.00;100665.84;4998045;28;20041;-84
2022/06/22 09:47:01;;;;;;;1.80;0.98;;;;;;;36.14;19.27;100671.53;5009951;28;20392;-87
2022/06/22 09:50:09;;;;;;;0.82;0.60;;;;;;;36.50;18.14;100674.50;5023841;28;20037;-85
2022/06/22 09:53:13;;;;;;;2.80;1.63;;;;;;;36.87;17.05;100661.91;5006783;28;20041;-86
2022/06/22 09:59:15;;;;;;;26.00;4.53;;;;;;;37.82;17.24;100661.28;4950602;28;20042;-87
2022/06/22 10:01:48;;;;;;;;;;;;;;;37.84;15.75;100667.41;5007403;28;20108;-87
2022/06/22 10:04:42;;;;;;;5.65;1.13;;;;;;;37.77;16.81;100663.72;5027220;28;19932;-83
2022/06/22 10:07:34;;;;;;;2.65;0.63;;;;;;;37.83;15.91;100671.16;5002980;28;20572;-84
2022/06/22 10:10:24;;;;;;;4.85;0.60;;;;;;;38.51;16.18;100677.13;5013758;28;20061;-82
2022/06/22 10:13:22;;;;;;;1.23;0.60;;;;;;;39.01;15.42;100678.97;5019060;28;20068;-86
2022/06/22 10:16:16;;;;;;;2.10;0.85;;;;;;;39.55;14.62;100674.63;5016296;28;20056;-84
2022/06/22 10:19:11;;;;;;;1.65;0.98;;;;;;;39.33;14.76;100677.47;5019085;28;20041;-87
2022/06/22 10:22:16;;;;;;;3.17;0.70;;;;;;;39.54;14.61;100670.19;5025423;28;20036;-88
2022/06/22 10:25:00;;;;;;;0.73;0.63;;;;;;;39.69;15.46;100659.94;5031502;28;20088;-87
2022/06/22 10:27:52;;;;;;;3.20;1.35;;;;;;;39.61;14.69;100662.84;5032501;28;20101;-88
2022/06/22 10:30:34;;;;;;;2.75;0.55;;;;;;;38.72;15.77;100659.84;5007620;28;20049;-87
2022/06/22 10:33:28;;;;;;;;;;;;;;;39.26;15.42;100657.44;5022802;28;20041;-89
2022/06/22 10:36:24;;;;;;;3.80;0.90;;;;;;;40.05;14.59;100657.91;5039554;28;19931;-89
2022/06/22 10:39:27;;;;;;;3.60;0.88;;;;;;;39.38;14.70;100646.75;5027934;28;20041;-85
2022/06/22 10:45:48;;;;;;;2.25;0.63;;;;;;;38.17;15.51;100643.13;5013291;28;20489;-84
2022/06/22 10:48:58;;;;;;;1.10;0.60;;;;;;;37.68;15.73;100652.03;5013103;28;20072;-84
2022/06/22 10:52:12;;;;;;;0.47;0.38;;;;;;;37.00;15.88;100660.38;5036394;28;20053;-85
2022/06/22 10:55:17;;;;;;;2.47;0.80;;;;;;;36.94;15.95;100650.25;5005415;28;20129;-85
2022/06/22 10:58:21;;;;;;;1.75;0.60;;;;;;;38.23;15.25;100650.53;5026079;28;20048;-82
2022/06/22 11:01:31;;;;;;;2.28;0.70;;;;;;;39.56;14.22;100643.44;5006653;28;20503;-85
2022/06/22 11:04:52;;;;;;;2.13;1.05;;;;;;;40.17;13.48;100641.72;5006473;28;20057;-85
2022/06/22 11:07:51;;;;;;;1.55;0.80;;;;;;;39.72;14.08;100652.38;5023796;28;20275;-84
2022/06/22 11:10:42;;;;;;;2.28;0.55;;;;;;;40.60;13.53;100656.91;5025045;28;20463;-86
2022/06/22 11:13:52;;;;;;;1.60;0.90;;;;;;;40.94;12.85;100655.81;5011704;28;20037;-85
2022/06/22 11:16:55;;;;;;;1.45;0.75;;;;;;;39.84;13.58;100664.41;5010006;28;20048;-85
2022/06/22 11:19:54;;;;;;;2.78;0.98;;;;;;;39.55;14.03;100663.66;5009508;28;20058;-88
2022/06/22 11:22:30;;;;;;;1.50;0.50;;;;;;;38.85;14.26;100663.69;5026430;28;20041;-84
2022/06/22 11:32:05;;;;;;;2.72;0.70;;;;;;;38.14;15.11;100657.19;5027347;28;20737;-85
2022/06/22 11:34:53;;;;;;;1.10;0.50;;;;;;;39.64;13.78;100654.25;5015479;28;20029;-90
2022/06/22 11:37:49;;;;;;;1.17;0.47;;;;;;;40.08;13.42;100660.28;5024320;28;20042;-85
2022/06/22 11:40:57;;;;;;;2.78;0.68;;;;;;;39.96;13.19;100657.28;5007596;28;20045;-84
2022/06/22 11:43:49;;;;;;;0.60;0.60;;;;;;;40.81;13.37;100651.19;5023431;28;20148;-84
2022/06/22 11:46:38;;;;;;;2.72;0.95;;;;;;;41.99;12.45;100657.50;5032623;28;20124;-87
2022/06/22 11:49:43;;;;;;;1.63;0.55;;;;;;;42.48;12.05;100662.44;5026309;28;20049;-85
2022/06/22 11:52:42;;;;;;;1.02;0.40;;;;;;;42.53;11.25;100656.25;5012455;28;20041;-84
2022/06/22 11:55:26;;;;;;;2.30;0.50;;;;;;;40.77;12.73;100644.44;5030436;28;20043;-84
2022/06/22 11:58:20;;;;;;;1.67;0.50;;;;;;;40.39;12.29;100636.88;4996110;28;20049;-85
2022/06/22 12:01:14;;;;;;;0.75;0.60;;;;;;;38.84;13.33;100640.09;5026856;28;20076;-87
2022/06/22 12:04:09;;;;;;;2.78;0.55;;;;;;;39.31;13.12;100634.91;5007599;28;20053;-84
2022/06/22 12:06:53;;;;;;;1.73;0.50;;;;;;;40.05;12.77;100625.00;5026334;28;20057;-83
2022/06/22 12:10:11;;;;;;;2.67;1.45;;;;;;;40.78;12.37;100615.09;5017211;28;20042;-84
2022/06/22 12:12:49;;;;;;;0.90;0.50;;;;;;;41.95;11.57;100605.94;4990895;28;20048;-85
2022/06/22 12:15:45;;;;;;;0.98;0.25;;;;;;;42.44;10.23;100612.53;5027851;28;20083;-86
2022/06/22 12:18:25;;;;;;;1.10;0.63;;;;;;;41.80;11.05;100606.22;5026401;28;20052;-82
2022/06/22 12:21:24;;;;;;;1.60;0.57;;;;;;;41.77;10.72;100601.16;5015854;28;20042;-84
2022/06/22 12:24:15;;;;;;;1.30;0.52;;;;;;;42.22;10.50;100597.47;5027639;28;20131;-84
2022/06/22 12:27:05;;;;;;;2.42;0.43;;;;;;;43.22;10.37;100592.84;5020705;28;20048;-84
2022/06/22 12:30:22;;;;;;;0.85;0.47;;;;;;;42.08;10.71;100585.75;5019293;28;20057;-88
2022/06/22 12:33:23;;;;;;;4.22;0.95;;;;;;;40.83;11.39;100585.09;5021624;28;20062;-84
2022/06/22 12:36:22;;;;;;;8.93;1.10;;;;;;;41.77;10.89;100584.69;4997705;28;20052;-85
2022/06/22 12:38:56;;;;;;;3.03;0.68;;;;;;;41.92;10.96;100576.97;4992564;28;20055;-85
2022/06/22 12:41:54;;;;;;;2.35;0.68;;;;;;;41.26;11.34;100573.53;5000873;28;20070;-84
2022/06/22 12:44:40;;;;;;;1.73;0.30;;;;;;;42.51;10.68;100568.41;5029041;28;20043;-84
2022/06/22 12:47:38;;;;;;;9.38;1.48;;;;;;;43.56;9.78;100568.44;5026572;28;20034;-83
2022/06/22 12:50:48;;;;;;;3.78;0.93;;;;;;;43.33;10.42;100569.19;4989568;28;20608;-88
2022/06/22 12:53:27;;;;;;;0.95;0.40;;;;;;;43.75;9.91;100563.69;5024095;28;20062;-85
2022/06/22 12:56:26;;;;;;;4.43;0.60;;;;;;;44.38;9.64;100569.66;5008647;28;20037;-85
2022/06/22 12:59:10;;;;;;;1.85;0.38;;;;;;;44.88;8.99;100565.53;4995832;28;20073;-85
2022/06/22 13:01:38;;;;;;;1.05;0.50;;;;;;;45.02;9.68;100561.38;5009308;28;20918;-85
2022/06/22 13:04:34;;;;;;;0.82;0.70;;;;;;;45.03;9.10;100562.22;5008670;28;20837;-86
2022/06/22 13:07:06;;;;;;;1.90;0.70;;;;;;;44.76;9.28;100562.81;4996426;28;20528;-87
2022/06/22 13:09:36;;;;;;;0.65;0.43;;;;;;;44.30;9.84;100564.47;4998345;28;20064;-84
2022/06/22 13:12:23;;;;;;;0.55;0.55;;;;;;;43.09;10.26;100563.56;5018301;28;20093;-87
2022/06/22 13:15:19;;;;;;;2.38;0.40;;;;;;;42.09;10.91;100569.00;4994168;28;20699;-85
2022/06/22 13:17:56;;;;;;;1.02;0.57;;;;;;;42.37;10.68;100555.88;5029495;28;20033;-86